Hawk — LAGF7 — position and weather

sailwx.info

Track history (hours):
 
Tides and Currents Weather Stations Pressure Air Temp Water Temp Dewpoint Dewpoint Depression Visibility Wind Speed Wind Dir Waves Ship Positions

Hawk

Last reported at 2017-May-14 01:12 UTC. Time now 2017-May-27 13:40 UTC.
Position N 30°47' E 032°19'.
Warning: this ship's position is 13 days out of date.

Length 223 m; draft 9.4 m.

Type: Cargo ship. MMSI: 259848000.

Date/timePositionNaut miles runAvg speedWind from/ knotsBaromVisibWave heightAir tempDewpointWater temp
2017-May-14 01:12N 30°47' E 032°19'2 8.6
2017-May-14 01:00N 30°49' E 032°19'37 6.4
2017-May-13 19:14N 31°26' E 032°21'2 5.8
2017-May-13 18:54N 31°27' E 032°20'5 8.8
2017-May-13 18:17N 31°33' E 032°21'3 8.9
2017-May-13 18:00N 31°35' E 032°21'1810.3
2017-May-13 16:17N 31°47' E 032°36'311.3
2017-May-13 16:01N 31°50' E 032°37'611.8
2017-May-13 15:31N 31°56' E 032°39'611.8
2017-May-13 14:58N 32°02' E 032°42'511.7
2017-May-13 14:30N 32°07' E 032°44'1111.4
2017-May-13 13:31N 32°18' E 032°48'510.9
2017-May-13 13:01N 32°23' E 032°49'510.8
2017-May-13 12:30N 32°29' E 032°51'1 2.7
2017-May-13 12:01N 32°30' E 032°52'0 0.3
2017-May-13 11:30N 32°30' E 032°52'0 0.3
2017-May-13 11:00N 32°30' E 032°51'1 0.2
2017-May-13 08:34N 32°29' E 032°51'0 0.2
2017-May-13 08:30N 32°29' E 032°51'0 0.1
2017-May-13 07:15N 32°29' E 032°51'10 5.1
2017-May-13 05:21N 32°38' E 032°55'811.2
2017-May-13 04:40N 32°46' E 032°57'211.3
2017-May-13 04:31N 32°47' E 032°58'611.6
2017-May-13 04:00N 32°53' E 032°60'611.6
2017-May-13 03:30N 32°58' E 033°02'611.7
2017-May-13 03:01N 33°04' E 033°04'611.7
2017-May-13 02:30N 33°09' E 033°06'611.7
2017-May-13 02:00N 33°15' E 033°08'1711.8
2017-May-13 00:35N 33°31' E 033°14'211.9
2017-May-13 00:28N 33°32' E 033°15'1511.7
2017-May-12 23:09N 33°47' E 033°21'211.5
2017-May-12 23:00N 33°49' E 033°21'4811.3
2017-May-12 18:45N 34°34' E 033°39'311.1
2017-May-12 18:31N 34°37' E 033°39'611.0
2017-May-12 18:01N 34°42' E 033°41'510.9
2017-May-12 17:30N 34°48' E 033°43'610.8
2017-May-12 16:59N 34°53' E 033°43'3 5.5
2017-May-12 16:30N 34°55' E 033°40'0 0.2
2017-May-12 15:57N 34°55' E 033°40'0 0.0
2017-May-12 15:30N 34°55' E 033°40'0 0.0
2017-May-12 15:00N 34°55' E 033°40'0 0.0
2017-May-12 14:00N 34°55' E 033°40'0 0.0
2017-May-12 13:30N 34°55' E 033°40'0 0.0
2017-May-11 17:45N 34°55' E 033°40'0 0.0
2017-May-11 15:48N 34°55' E 033°40'0 0.0
2017-May-11 15:30N 34°55' E 033°40'0 0.0
2017-May-11 15:00N 34°55' E 033°40'0 0.0
2017-May-11 05:00N 34°55' E 033°40'0 0.1
2017-May-11 04:18N 34°55' E 033°40'0 0.0
2017-May-11 04:00N 34°55' E 033°40'0 0.0
2017-May-11 03:30N 34°55' E 033°40'0 0.0
2017-May-11 01:48N 34°55' E 033°40'0 0.2
2017-May-11 01:30N 34°55' E 033°40'0 0.1
2017-May-10 23:27N 34°55' E 033°40'3 0.6
2017-May-10 18:08N 34°53' E 033°43'2 9.3
2017-May-10 17:57N 34°51' E 033°43'3 6.8
2017-May-10 17:31N 34°48' E 033°42'9 9.5
2017-May-10 16:34N 34°41' E 033°36'112.0
2017-May-10 16:28N 34°41' E 033°34'511.0
2017-May-10 16:00N 34°38' E 033°29'1010.7
2017-May-10 15:07N 34°32' E 033°20'110.8
2017-May-10 15:01N 34°32' E 033°18'1311.3
2017-May-10 13:51N 34°25' E 033°05'412.5
2017-May-10 13:30N 34°25' E 032°59'6112.1
2017-May-10 08:26N 34°27' E 031°45'512.3
2017-May-10 08:00N 34°27' E 031°39'  
2017-May-07 20:40N 35°50' E 017°19'212.4
2017-May-07 20:30N 35°51' E 017°17'712.3
2017-May-07 19:58N 35°52' E 017°09'612.2
2017-May-07 19:30N 35°53' E 017°02'612.2
2017-May-07 19:00N 35°55' E 016°54'612.2
2017-May-07 18:30N 35°56' E 016°47'612.2
2017-May-07 18:00N 35°57' E 016°40'612.3
2017-May-07 17:30N 35°58' E 016°32'612.4
2017-May-07 17:00N 35°60' E 016°25'612.4
2017-May-07 16:30N 36°01' E 016°17'612.0
2017-May-07 15:59N 36°02' E 016°10'2411.9
2017-May-07 13:59N 36°07' E 015°41'611.8
2017-May-07 13:27N 36°08' E 015°33'512.0
2017-May-07 13:00N 36°09' E 015°27'612.0
2017-May-07 12:30N 36°11' E 015°20'612.1
2017-May-07 12:00N 36°12' E 015°12'612.4
2017-May-07 11:30N 36°13' E 015°05'612.3
2017-May-07 11:00N 36°14' E 014°57'612.3
2017-May-07 10:30N 36°16' E 014°50'612.4
2017-May-07 10:00N 36°17' E 014°42'612.4
2017-May-07 09:30N 36°18' E 014°35'612.4
2017-May-07 09:00N 36°20' E 014°27'612.3
2017-May-07 08:30N 36°21' E 014°20'612.3
2017-May-07 08:00N 36°22' E 014°12'612.1
2017-May-07 07:30N 36°23' E 014°05'612.0
2017-May-07 07:01N 36°24' E 013°58'611.9
2017-May-07 06:31N 36°26' E 013°51'612.0
2017-May-07 06:00N 36°29' E 013°44'612.1
2017-May-07 05:30N 36°31' E 013°37'611.8
2017-May-07 05:00N 36°34' E 013°30'612.0
2017-May-07 04:30N 36°36' E 013°23'612.0
2017-May-07 04:00N 36°38' E 013°17'611.9
2017-May-07 03:30N 36°40' E 013°10'611.9
2017-May-07 03:00N 36°43' E 013°03'712.2
2017-May-07 02:28N 36°45' E 012°55'612.3
2017-May-07 02:00N 36°47' E 012°49'2812.2
2017-May-06 23:41N 36°59' E 012°16'212.0
2017-May-06 23:30N 36°59' E 012°14'612.1
2017-May-06 23:00N 37°02' E 012°07'612.0
2017-May-06 22:29N 37°04' E 011°60'612.1
2017-May-06 22:00N 37°07' E 011°53'612.2
2017-May-06 21:29N 37°09' E 011°46'32912.2
2017-May-05 18:27N 37°14' E 004°53'2812.3
2017-May-05 16:10N 37°12' E 004°18'911.9
2017-May-05 15:23N 37°09' E 004°07'810.4
2017-May-05 14:39N 37°06' E 003°58'912.2
2017-May-05 13:57N 37°06' E 003°47'612.5
2017-May-05 13:29N 37°05' E 003°40'712.7
2017-May-05 12:58N 37°04' E 003°32'612.8
2017-May-05 12:30N 37°04' E 003°24'612.9
2017-May-05 12:00N 37°03' E 003°16'612.4
2017-May-05 11:30N 37°03' E 003°09'812.6
2017-May-05 10:52N 37°02' E 002°58'3412.4
2017-May-05 08:05N 36°56' E 002°16'111.8
2017-May-05 08:00N 36°56' E 002°15'611.8
2017-May-05 07:30N 36°55' E 002°08'611.7
2017-May-05 07:00N 36°54' E 002°00'611.8
2017-May-05 06:30N 36°52' E 001°53'611.9
2017-May-05 06:00N 36°51' E 001°46'612.2
2017-May-05 05:29N 36°50' E 001°38'612.3
2017-May-05 05:00N 36°49' E 001°31'612.3
2017-May-05 04:30N 36°48' E 001°23'612.4
2017-May-05 04:00N 36°47' E 001°16'612.5
2017-May-05 03:30N 36°46' E 001°08'612.3
2017-May-05 03:00N 36°45' E 001°00'612.2
2017-May-05 02:30N 36°44' E 000°53'5312.0
2017-May-04 22:05N 36°34' W 000°12'212.0
2017-May-04 21:57N 36°34' W 000°14'512.0
2017-May-04 21:30N 36°33' W 000°21'611.9
2017-May-04 21:00N 36°32' W 000°28'712.2
2017-May-04 20:28N 36°30' W 000°36'611.8
2017-May-04 19:57N 36°29' W 000°44'20411.4
2017-May-04 02:04N 36°00' W 004°55'112.2
2017-May-04 01:59N 36°00' W 004°56'611.8
2017-May-04 01:30N 35°60' W 005°03'  
Track history (hours):
 
Tides and Currents Weather Stations Pressure Air Temp Water Temp Dewpoint Dewpoint Depression Visibility Wind Speed Wind Dir Waves Ship Positions

Hawk

Last reported at 2017-May-14 01:12 UTC. Time now 2017-May-27 13:40 UTC.
Position N 30°47' E 032°19'.
Warning: this ship's position is 13 days out of date.

Length 223 m; draft 9.4 m.

Type: Cargo ship. MMSI: 259848000.

Date/timePositionNaut miles runAvg speedWind from/ knotsBaromVisibWave heightAir tempDewpointWater temp
2017-May-14 01:12N 30°47' E 032°19'2 8.6
2017-May-14 01:00N 30°49' E 032°19'37 6.4
2017-May-13 19:14N 31°26' E 032°21'2 5.8
2017-May-13 18:54N 31°27' E 032°20'5 8.8
2017-May-13 18:17N 31°33' E 032°21'3 8.9
2017-May-13 18:00N 31°35' E 032°21'1810.3
2017-May-13 16:17N 31°47' E 032°36'311.3
2017-May-13 16:01N 31°50' E 032°37'611.8
2017-May-13 15:31N 31°56' E 032°39'611.8
2017-May-13 14:58N 32°02' E 032°42'511.7
2017-May-13 14:30N 32°07' E 032°44'1111.4
2017-May-13 13:31N 32°18' E 032°48'510.9
2017-May-13 13:01N 32°23' E 032°49'510.8
2017-May-13 12:30N 32°29' E 032°51'1 2.7
2017-May-13 12:01N 32°30' E 032°52'0 0.3
2017-May-13 11:30N 32°30' E 032°52'0 0.3
2017-May-13 11:00N 32°30' E 032°51'1 0.2
2017-May-13 08:34N 32°29' E 032°51'0 0.2
2017-May-13 08:30N 32°29' E 032°51'0 0.1
2017-May-13 07:15N 32°29' E 032°51'10 5.1
2017-May-13 05:21N 32°38' E 032°55'811.2
2017-May-13 04:40N 32°46' E 032°57'211.3
2017-May-13 04:31N 32°47' E 032°58'611.6
2017-May-13 04:00N 32°53' E 032°60'611.6
2017-May-13 03:30N 32°58' E 033°02'611.7
2017-May-13 03:01N 33°04' E 033°04'611.7
2017-May-13 02:30N 33°09' E 033°06'611.7
2017-May-13 02:00N 33°15' E 033°08'1711.8
2017-May-13 00:35N 33°31' E 033°14'211.9
2017-May-13 00:28N 33°32' E 033°15'1511.7
2017-May-12 23:09N 33°47' E 033°21'211.5
2017-May-12 23:00N 33°49' E 033°21'4811.3
2017-May-12 18:45N 34°34' E 033°39'311.1
2017-May-12 18:31N 34°37' E 033°39'611.0
2017-May-12 18:01N 34°42' E 033°41'510.9
2017-May-12 17:30N 34°48' E 033°43'610.8
2017-May-12 16:59N 34°53' E 033°43'3 5.5
2017-May-12 16:30N 34°55' E 033°40'0 0.2
2017-May-12 15:57N 34°55' E 033°40'0 0.0
2017-May-12 15:30N 34°55' E 033°40'0 0.0
2017-May-12 15:00N 34°55' E 033°40'0 0.0
2017-May-12 14:00N 34°55' E 033°40'0 0.0
2017-May-12 13:30N 34°55' E 033°40'0 0.0
2017-May-11 17:45N 34°55' E 033°40'0 0.0
2017-May-11 15:48N 34°55' E 033°40'0 0.0
2017-May-11 15:30N 34°55' E 033°40'0 0.0
2017-May-11 15:00N 34°55' E 033°40'0 0.0
2017-May-11 05:00N 34°55' E 033°40'0 0.1
2017-May-11 04:18N 34°55' E 033°40'0 0.0
2017-May-11 04:00N 34°55' E 033°40'0 0.0
2017-May-11 03:30N 34°55' E 033°40'0 0.0
2017-May-11 01:48N 34°55' E 033°40'0 0.2
2017-May-11 01:30N 34°55' E 033°40'0 0.1
2017-May-10 23:27N 34°55' E 033°40'3 0.6
2017-May-10 18:08N 34°53' E 033°43'2 9.3
2017-May-10 17:57N 34°51' E 033°43'3 6.8
2017-May-10 17:31N 34°48' E 033°42'9 9.5
2017-May-10 16:34N 34°41' E 033°36'112.0
2017-May-10 16:28N 34°41' E 033°34'511.0
2017-May-10 16:00N 34°38' E 033°29'1010.7
2017-May-10 15:07N 34°32' E 033°20'110.8
2017-May-10 15:01N 34°32' E 033°18'1311.3
2017-May-10 13:51N 34°25' E 033°05'412.5
2017-May-10 13:30N 34°25' E 032°59'6112.1
2017-May-10 08:26N 34°27' E 031°45'512.3
2017-May-10 08:00N 34°27' E 031°39'  
2017-May-07 20:40N 35°50' E 017°19'212.4
2017-May-07 20:30N 35°51' E 017°17'712.3
2017-May-07 19:58N 35°52' E 017°09'612.2
2017-May-07 19:30N 35°53' E 017°02'612.2
2017-May-07 19:00N 35°55' E 016°54'612.2
2017-May-07 18:30N 35°56' E 016°47'612.2
2017-May-07 18:00N 35°57' E 016°40'612.3
2017-May-07 17:30N 35°58' E 016°32'612.4
2017-May-07 17:00N 35°60' E 016°25'612.4
2017-May-07 16:30N 36°01' E 016°17'612.0
2017-May-07 15:59N 36°02' E 016°10'2411.9
2017-May-07 13:59N 36°07' E 015°41'611.8
2017-May-07 13:27N 36°08' E 015°33'512.0
2017-May-07 13:00N 36°09' E 015°27'612.0
2017-May-07 12:30N 36°11' E 015°20'612.1
2017-May-07 12:00N 36°12' E 015°12'612.4
2017-May-07 11:30N 36°13' E 015°05'612.3
2017-May-07 11:00N 36°14' E 014°57'612.3
2017-May-07 10:30N 36°16' E 014°50'612.4
2017-May-07 10:00N 36°17' E 014°42'612.4
2017-May-07 09:30N 36°18' E 014°35'612.4
2017-May-07 09:00N 36°20' E 014°27'612.3
2017-May-07 08:30N 36°21' E 014°20'612.3
2017-May-07 08:00N 36°22' E 014°12'612.1
2017-May-07 07:30N 36°23' E 014°05'612.0
2017-May-07 07:01N 36°24' E 013°58'611.9
2017-May-07 06:31N 36°26' E 013°51'612.0
2017-May-07 06:00N 36°29' E 013°44'612.1
2017-May-07 05:30N 36°31' E 013°37'611.8
2017-May-07 05:00N 36°34' E 013°30'612.0
2017-May-07 04:30N 36°36' E 013°23'612.0
2017-May-07 04:00N 36°38' E 013°17'611.9
2017-May-07 03:30N 36°40' E 013°10'611.9
2017-May-07 03:00N 36°43' E 013°03'712.2
2017-May-07 02:28N 36°45' E 012°55'612.3
2017-May-07 02:00N 36°47' E 012°49'2812.2
2017-May-06 23:41N 36°59' E 012°16'212.0
2017-May-06 23:30N 36°59' E 012°14'612.1
2017-May-06 23:00N 37°02' E 012°07'612.0
2017-May-06 22:29N 37°04' E 011°60'612.1
2017-May-06 22:00N 37°07' E 011°53'612.2
2017-May-06 21:29N 37°09' E 011°46'32912.2
2017-May-05 18:27N 37°14' E 004°53'2812.3
2017-May-05 16:10N 37°12' E 004°18'911.9
2017-May-05 15:23N 37°09' E 004°07'810.4
2017-May-05 14:39N 37°06' E 003°58'912.2
2017-May-05 13:57N 37°06' E 003°47'612.5
2017-May-05 13:29N 37°05' E 003°40'712.7
2017-May-05 12:58N 37°04' E 003°32'612.8
2017-May-05 12:30N 37°04' E 003°24'612.9
2017-May-05 12:00N 37°03' E 003°16'612.4
2017-May-05 11:30N 37°03' E 003°09'812.6
2017-May-05 10:52N 37°02' E 002°58'3412.4
2017-May-05 08:05N 36°56' E 002°16'111.8
2017-May-05 08:00N 36°56' E 002°15'611.8
2017-May-05 07:30N 36°55' E 002°08'611.7
2017-May-05 07:00N 36°54' E 002°00'611.8
2017-May-05 06:30N 36°52' E 001°53'611.9
2017-May-05 06:00N 36°51' E 001°46'612.2
2017-May-05 05:29N 36°50' E 001°38'612.3
2017-May-05 05:00N 36°49' E 001°31'612.3
2017-May-05 04:30N 36°48' E 001°23'612.4
2017-May-05 04:00N 36°47' E 001°16'612.5
2017-May-05 03:30N 36°46' E 001°08'612.3
2017-May-05 03:00N 36°45' E 001°00'612.2
2017-May-05 02:30N 36°44' E 000°53'5312.0
2017-May-04 22:05N 36°34' W 000°12'212.0
2017-May-04 21:57N 36°34' W 000°14'512.0
2017-May-04 21:30N 36°33' W 000°21'611.9
2017-May-04 21:00N 36°32' W 000°28'712.2
2017-May-04 20:28N 36°30' W 000°36'611.8
2017-May-04 19:57N 36°29' W 000°44'20411.4
2017-May-04 02:04N 36°00' W 004°55'112.2
2017-May-04 01:59N 36°00' W 004°56'611.8
2017-May-04 01:30N 35°60' W 005°03'  

Dump ship's entire track history